KMYZ

Marysville Municipal Airport

Marysville, Kansas, USA
METAR KMYZ 100555Z AUTO 00000KT 10SM CLR M06/M07 A3032 RMK AO2
Observed Flight Rules
Dec-10 @ 05:55 UTC (34 minutes ago) Visual Flight Rules
Visibility Clouds
10 miles
  • Clear skies
Temperatures Readings
Current -6°C / 21°F
Dewpoint -7°C / 19°F
Humidity 93%
Altimeter 30.32" Hg
Pressure 1027 hPa
Elevation 319
METAR KMYZ 100555Z AUTO 00000KT 10SM CLR M06/M07 A3032 RMK AO2
Observed Flight Rules
Dec-10 @ 05:55 UTC
(34 minutes ago)
VFR
Clouds
  • Clear skies
Temperature Dewpoint
-6°C / 21°F -7°C / 19°F
Humidity Altimeter Pressure
93% 30.32" Hg 1027 hPa